sensor_id;sensor_type;location;lat;lon;timestamp;temperature;humidity
22925;DHT22;11628;51.072;3.712;2023-03-01T00:02:01;4.10;91.70
22925;DHT22;11628;51.072;3.712;2023-03-01T00:04:27;4.00;91.90
22925;DHT22;11628;51.072;3.712;2023-03-01T00:06:53;4.10;92.00
22925;DHT22;11628;51.072;3.712;2023-03-01T00:09:19;4.00;92.10
22925;DHT22;11628;51.072;3.712;2023-03-01T00:11:45;4.00;92.30
22925;DHT22;11628;51.072;3.712;2023-03-01T00:14:11;4.00;92.50
22925;DHT22;11628;51.072;3.712;2023-03-01T00:16:39;4.00;92.70
22925;DHT22;11628;51.072;3.712;2023-03-01T00:19:13;3.90;93.00
22925;DHT22;11628;51.072;3.712;2023-03-01T00:21:39;3.90;93.20
22925;DHT22;11628;51.072;3.712;2023-03-01T00:24:05;3.90;93.50
22925;DHT22;11628;51.072;3.712;2023-03-01T00:26:31;3.80;93.80
22925;DHT22;11628;51.072;3.712;2023-03-01T00:28:58;3.80;94.10
22925;DHT22;11628;51.072;3.712;2023-03-01T00:31:26;3.80;94.50
22925;DHT22;11628;51.072;3.712;2023-03-01T00:33:57;3.70;94.90
22925;DHT22;11628;51.072;3.712;2023-03-01T00:36:28;3.70;95.30
22925;DHT22;11628;51.072;3.712;2023-03-01T00:38:55;3.70;95.60
22925;DHT22;11628;51.072;3.712;2023-03-01T00:41:21;3.70;96.00
22925;DHT22;11628;51.072;3.712;2023-03-01T00:43:52;3.70;96.30
22925;DHT22;11628;51.072;3.712;2023-03-01T00:46:20;3.70;96.60
22925;DHT22;11628;51.072;3.712;2023-03-01T00:48:46;3.70;96.90
22925;DHT22;11628;51.072;3.712;2023-03-01T00:51:19;3.70;97.30
22925;DHT22;11628;51.072;3.712;2023-03-01T00:53:46;3.60;97.70
22925;DHT22;11628;51.072;3.712;2023-03-01T00:56:14;3.60;98.20
22925;DHT22;11628;51.072;3.712;2023-03-01T00:58:40;3.60;98.70
22925;DHT22;11628;51.072;3.712;2023-03-01T01:01:17;3.50;99.00
22925;DHT22;11628;51.072;3.712;2023-03-01T01:06:14;3.40;99.90
22925;DHT22;11628;51.072;3.712;2023-03-01T01:08:40;3.40;99.90
22925;DHT22;11628;51.072;3.712;2023-03-01T01:11:09;3.40;99.90
22925;DHT22;11628;51.072;3.712;2023-03-01T01:13:35;3.30;99.90
22925;DHT22;11628;51.072;3.712;2023-03-01T01:16:01;3.30;99.90
22925;DHT22;11628;51.072;3.712;2023-03-01T01:18:27;3.30;99.90
22925;DHT22;11628;51.072;3.712;2023-03-01T01:20:53;3.30;99.90
22925;DHT22;11628;51.072;3.712;2023-03-01T01:23:18;3.30;99.90
22925;DHT22;11628;51.072;3.712;2023-03-01T01:25:44;3.30;99.90
22925;DHT22;11628;51.072;3.712;2023-03-01T01:28:10;3.30;99.90
22925;DHT22;11628;51.072;3.712;2023-03-01T01:30:35;3.30;99.90
22925;DHT22;11628;51.072;3.712;2023-03-01T01:33:01;3.30;99.90
22925;DHT22;11628;51.072;3.712;2023-03-01T01:35:27;3.30;99.90
22925;DHT22;11628;51.072;3.712;2023-03-01T01:37:53;3.30;99.90
22925;DHT22;11628;51.072;3.712;2023-03-01T01:40:19;3.30;99.90
22925;DHT22;11628;51.072;3.712;2023-03-01T01:42:44;3.30;99.90
22925;DHT22;11628;51.072;3.712;2023-03-01T01:45:34;3.20;99.90
22925;DHT22;11628;51.072;3.712;2023-03-01T01:48:09;3.20;99.90
22925;DHT22;11628;51.072;3.712;2023-03-01T01:50:36;3.10;99.90
22925;DHT22;11628;51.072;3.712;2023-03-01T01:53:10;3.10;99.90
22925;DHT22;11628;51.072;3.712;2023-03-01T01:55:42;3.10;99.90
22925;DHT22;11628;51.072;3.712;2023-03-01T01:58:10;3.10;99.90
22925;DHT22;11628;51.072;3.712;2023-03-01T02:00:37;3.10;99.90
22925;DHT22;11628;51.072;3.712;2023-03-01T02:03:17;3.10;99.90
22925;DHT22;11628;51.072;3.712;2023-03-01T02:05:58;3.20;99.90
22925;DHT22;11628;51.072;3.712;2023-03-01T02:08:28;3.20;99.90
22925;DHT22;11628;51.072;3.712;2023-03-01T02:10:56;3.20;99.90
22925;DHT22;11628;51.072;3.712;2023-03-01T02:13:23;3.20;99.90
22925;DHT22;11628;51.072;3.712;2023-03-01T02:15:49;3.20;99.90
22925;DHT22;11628;51.072;3.712;2023-03-01T02:18:18;3.10;99.90
22925;DHT22;11628;51.072;3.712;2023-03-01T02:20:59;3.10;99.90
22925;DHT22;11628;51.072;3.712;2023-03-01T02:23:28;3.10;99.90
22925;DHT22;11628;51.072;3.712;2023-03-01T02:26:06;3.00;99.90
22925;DHT22;11628;51.072;3.712;2023-03-01T02:28:38;3.00;99.90
22925;DHT22;11628;51.072;3.712;2023-03-01T02:31:09;3.00;99.90
22925;DHT22;11628;51.072;3.712;2023-03-01T02:33:55;3.00;99.90
22925;DHT22;11628;51.072;3.712;2023-03-01T02:36:28;3.10;99.90
22925;DHT22;11628;51.072;3.712;2023-03-01T02:38:57;3.10;99.90
22925;DHT22;11628;51.072;3.712;2023-03-01T02:41:24;3.10;99.90
22925;DHT22;11628;51.072;3.712;2023-03-01T02:43:51;3.10;99.90
22925;DHT22;11628;51.072;3.712;2023-03-01T02:46:23;3.10;99.90
22925;DHT22;11628;51.072;3.712;2023-03-01T02:48:52;2.90;99.90
22925;DHT22;11628;51.072;3.712;2023-03-01T02:54:28;2.80;99.90
22925;DHT22;11628;51.072;3.712;2023-03-01T02:56:56;2.80;99.90
22925;DHT22;11628;51.072;3.712;2023-03-01T02:59:28;2.80;99.90
22925;DHT22;11628;51.072;3.712;2023-03-01T03:01:54;2.80;99.90
22925;DHT22;11628;51.072;3.712;2023-03-01T03:04:20;2.70;99.90
22925;DHT22;11628;51.072;3.712;2023-03-01T03:06:48;2.70;99.90
22925;DHT22;11628;51.072;3.712;2023-03-01T03:09:15;2.80;99.90
22925;DHT22;11628;51.072;3.712;2023-03-01T03:11:42;2.80;99.90
22925;DHT22;11628;51.072;3.712;2023-03-01T03:14:11;2.80;99.90
22925;DHT22;11628;51.072;3.712;2023-03-01T03:16:43;2.70;99.90
22925;DHT22;11628;51.072;3.712;2023-03-01T03:19:09;2.80;99.90
22925;DHT22;11628;51.072;3.712;2023-03-01T03:21:35;2.70;99.90
22925;DHT22;11628;51.072;3.712;2023-03-01T03:24:01;2.70;99.90
22925;DHT22;11628;51.072;3.712;2023-03-01T03:26:27;2.70;99.90
22925;DHT22;11628;51.072;3.712;2023-03-01T03:28:53;2.60;99.90
22925;DHT22;11628;51.072;3.712;2023-03-01T03:31:19;2.60;99.90
22925;DHT22;11628;51.072;3.712;2023-03-01T03:33:45;2.50;99.90
22925;DHT22;11628;51.072;3.712;2023-03-01T03:36:17;2.50;99.90
22925;DHT22;11628;51.072;3.712;2023-03-01T03:38:44;2.50;99.90
22925;DHT22;11628;51.072;3.712;2023-03-01T03:41:11;2.50;99.90
22925;DHT22;11628;51.072;3.712;2023-03-01T03:43:39;2.50;99.90
22925;DHT22;11628;51.072;3.712;2023-03-01T03:46:05;2.50;99.90
22925;DHT22;11628;51.072;3.712;2023-03-01T03:48:34;2.70;99.90
22925;DHT22;11628;51.072;3.712;2023-03-01T03:51:00;2.50;99.90
22925;DHT22;11628;51.072;3.712;2023-03-01T03:53:27;2.50;99.90
22925;DHT22;11628;51.072;3.712;2023-03-01T03:55:55;2.40;99.90
22925;DHT22;11628;51.072;3.712;2023-03-01T03:58:23;2.40;99.90
22925;DHT22;11628;51.072;3.712;2023-03-01T04:00:51;2.40;99.90
22925;DHT22;11628;51.072;3.712;2023-03-01T04:03:19;2.40;99.90
22925;DHT22;11628;51.072;3.712;2023-03-01T04:05:46;2.30;99.90
22925;DHT22;11628;51.072;3.712;2023-03-01T04:08:13;2.20;99.90
22925;DHT22;11628;51.072;3.712;2023-03-01T04:10:41;2.30;99.90
22925;DHT22;11628;51.072;3.712;2023-03-01T04:13:11;2.30;99.90
22925;DHT22;11628;51.072;3.712;2023-03-01T04:15:38;2.30;99.90
22925;DHT22;11628;51.072;3.712;2023-03-01T04:18:04;2.20;99.90
22925;DHT22;11628;51.072;3.712;2023-03-01T04:20:32;2.20;99.90
22925;DHT22;11628;51.072;3.712;2023-03-01T04:23:04;2.20;99.90
22925;DHT22;11628;51.072;3.712;2023-03-01T04:25:53;2.20;99.90
22925;DHT22;11628;51.072;3.712;2023-03-01T04:28:41;2.20;99.90
22925;DHT22;11628;51.072;3.712;2023-03-01T04:31:16;2.10;99.90
22925;DHT22;11628;51.072;3.712;2023-03-01T04:33:44;2.00;99.90
22925;DHT22;11628;51.072;3.712;2023-03-01T04:36:12;2.00;99.90
22925;DHT22;11628;51.072;3.712;2023-03-01T04:38:38;2.00;99.90
22925;DHT22;11628;51.072;3.712;2023-03-01T04:41:06;2.00;99.90
22925;DHT22;11628;51.072;3.712;2023-03-01T04:43:32;2.00;99.90
22925;DHT22;11628;51.072;3.712;2023-03-01T04:46:19;2.00;99.90
22925;DHT22;11628;51.072;3.712;2023-03-01T04:48:46;2.00;99.90
22925;DHT22;11628;51.072;3.712;2023-03-01T04:51:12;2.00;99.90
22925;DHT22;11628;51.072;3.712;2023-03-01T04:53:39;2.10;99.90
22925;DHT22;11628;51.072;3.712;2023-03-01T04:56:05;2.10;99.90
22925;DHT22;11628;51.072;3.712;2023-03-01T04:58:32;2.10;99.90
22925;DHT22;11628;51.072;3.712;2023-03-01T05:00:57;2.10;99.90
22925;DHT22;11628;51.072;3.712;2023-03-01T05:03:23;2.10;99.90
22925;DHT22;11628;51.072;3.712;2023-03-01T05:05:51;2.10;99.90
22925;DHT22;11628;51.072;3.712;2023-03-01T05:08:17;2.20;99.90
22925;DHT22;11628;51.072;3.712;2023-03-01T05:10:49;2.10;99.90
22925;DHT22;11628;51.072;3.712;2023-03-01T05:13:15;2.10;99.90
22925;DHT22;11628;51.072;3.712;2023-03-01T05:15:47;2.10;99.90
22925;DHT22;11628;51.072;3.712;2023-03-01T05:18:17;2.10;99.90
22925;DHT22;11628;51.072;3.712;2023-03-01T05:20:43;2.20;99.90
22925;DHT22;11628;51.072;3.712;2023-03-01T05:23:10;2.30;99.90
22925;DHT22;11628;51.072;3.712;2023-03-01T05:25:36;2.40;99.90
22925;DHT22;11628;51.072;3.712;2023-03-01T05:28:07;2.50;99.90
22925;DHT22;11628;51.072;3.712;2023-03-01T05:30:35;2.50;99.90
22925;DHT22;11628;51.072;3.712;2023-03-01T05:33:01;2.50;99.90
22925;DHT22;11628;51.072;3.712;2023-03-01T05:35:27;2.50;99.90
22925;DHT22;11628;51.072;3.712;2023-03-01T05:37:55;2.50;99.90
22925;DHT22;11628;51.072;3.712;2023-03-01T05:40:23;2.50;99.90
22925;DHT22;11628;51.072;3.712;2023-03-01T05:42:53;2.50;99.90
22925;DHT22;11628;51.072;3.712;2023-03-01T05:45:20;2.60;99.90
22925;DHT22;11628;51.072;3.712;2023-03-01T05:47:48;2.60;99.90
22925;DHT22;11628;51.072;3.712;2023-03-01T05:50:25;2.60;99.90
22925;DHT22;11628;51.072;3.712;2023-03-01T05:52:59;2.50;99.90
22925;DHT22;11628;51.072;3.712;2023-03-01T05:55:26;2.40;99.90
22925;DHT22;11628;51.072;3.712;2023-03-01T05:57:52;2.40;99.90
22925;DHT22;11628;51.072;3.712;2023-03-01T06:00:19;2.40;99.90
22925;DHT22;11628;51.072;3.712;2023-03-01T06:02:47;2.50;99.90
22925;DHT22;11628;51.072;3.712;2023-03-01T06:05:13;2.50;99.90
22925;DHT22;11628;51.072;3.712;2023-03-01T06:07:40;2.60;99.90
22925;DHT22;11628;51.072;3.712;2023-03-01T06:10:07;2.50;99.90
22925;DHT22;11628;51.072;3.712;2023-03-01T06:12:35;2.50;99.90
22925;DHT22;11628;51.072;3.712;2023-03-01T06:15:02;2.50;99.90
22925;DHT22;11628;51.072;3.712;2023-03-01T06:17:30;2.40;99.90
22925;DHT22;11628;51.072;3.712;2023-03-01T06:19:56;2.60;99.90
22925;DHT22;11628;51.072;3.712;2023-03-01T06:22:22;2.60;99.90
22925;DHT22;11628;51.072;3.712;2023-03-01T06:24:47;2.60;99.90
22925;DHT22;11628;51.072;3.712;2023-03-01T06:27:13;2.70;99.90
22925;DHT22;11628;51.072;3.712;2023-03-01T06:29:39;2.80;99.90
22925;DHT22;11628;51.072;3.712;2023-03-01T06:32:05;2.70;99.90
22925;DHT22;11628;51.072;3.712;2023-03-01T06:34:31;2.60;99.90
22925;DHT22;11628;51.072;3.712;2023-03-01T06:36:57;2.60;99.90
22925;DHT22;11628;51.072;3.712;2023-03-01T06:39:23;2.60;99.90
22925;DHT22;11628;51.072;3.712;2023-03-01T06:41:48;2.60;99.90
22925;DHT22;11628;51.072;3.712;2023-03-01T06:44:14;2.50;99.90
22925;DHT22;11628;51.072;3.712;2023-03-01T06:46:40;2.50;99.90
22925;DHT22;11628;51.072;3.712;2023-03-01T06:49:06;2.60;99.90
22925;DHT22;11628;51.072;3.712;2023-03-01T06:51:35;2.60;99.90
22925;DHT22;11628;51.072;3.712;2023-03-01T06:54:03;2.60;99.90
22925;DHT22;11628;51.072;3.712;2023-03-01T06:56:29;2.60;99.90
22925;DHT22;11628;51.072;3.712;2023-03-01T06:58:54;2.70;99.90
22925;DHT22;11628;51.072;3.712;2023-03-01T07:01:20;2.80;99.90
22925;DHT22;11628;51.072;3.712;2023-03-01T07:03:45;2.80;99.90
22925;DHT22;11628;51.072;3.712;2023-03-01T07:06:11;2.80;99.90
22925;DHT22;11628;51.072;3.712;2023-03-01T07:08:37;2.80;99.90
22925;DHT22;11628;51.072;3.712;2023-03-01T07:11:03;3.00;99.90
22925;DHT22;11628;51.072;3.712;2023-03-01T07:13:29;3.00;99.90
22925;DHT22;11628;51.072;3.712;2023-03-01T07:15:55;3.10;99.90
22925;DHT22;11628;51.072;3.712;2023-03-01T07:18:21;3.20;99.90
22925;DHT22;11628;51.072;3.712;2023-03-01T07:20:46;3.20;99.90
22925;DHT22;11628;51.072;3.712;2023-03-01T07:23:12;3.20;99.90
22925;DHT22;11628;51.072;3.712;2023-03-01T07:25:38;3.30;99.90
22925;DHT22;11628;51.072;3.712;2023-03-01T07:28:04;3.40;99.90
22925;DHT22;11628;51.072;3.712;2023-03-01T07:30:29;3.40;99.90
22925;DHT22;11628;51.072;3.712;2023-03-01T07:32:56;3.60;99.90
22925;DHT22;11628;51.072;3.712;2023-03-01T07:35:24;3.70;99.90
22925;DHT22;11628;51.072;3.712;2023-03-01T07:37:50;3.70;99.90
22925;DHT22;11628;51.072;3.712;2023-03-01T07:40:16;3.80;99.90
22925;DHT22;11628;51.072;3.712;2023-03-01T07:42:42;4.00;99.90
22925;DHT22;11628;51.072;3.712;2023-03-01T07:45:07;4.30;99.90
22925;DHT22;11628;51.072;3.712;2023-03-01T07:47:33;5.20;99.90
22925;DHT22;11628;51.072;3.712;2023-03-01T07:49:59;6.40;99.90
22925;DHT22;11628;51.072;3.712;2023-03-01T07:52:26;7.80;99.90
22925;DHT22;11628;51.072;3.712;2023-03-01T07:54:52;9.20;99.90
22925;DHT22;11628;51.072;3.712;2023-03-01T07:57:18;10.50;99.30
22925;DHT22;11628;51.072;3.712;2023-03-01T07:59:43;11.70;95.60
22925;DHT22;11628;51.072;3.712;2023-03-01T08:02:10;13.00;91.80
22925;DHT22;11628;51.072;3.712;2023-03-01T08:04:36;14.20;90.00
22925;DHT22;11628;51.072;3.712;2023-03-01T08:07:05;15.40;82.10
22925;DHT22;11628;51.072;3.712;2023-03-01T08:09:31;16.20;77.50
22925;DHT22;11628;51.072;3.712;2023-03-01T08:11:57;16.80;73.90
22925;DHT22;11628;51.072;3.712;2023-03-01T08:14:26;17.60;71.00
22925;DHT22;11628;51.072;3.712;2023-03-01T08:16:52;18.20;68.70
22925;DHT22;11628;51.072;3.712;2023-03-01T08:19:18;19.10;65.80
22925;DHT22;11628;51.072;3.712;2023-03-01T08:21:43;19.60;62.90
22925;DHT22;11628;51.072;3.712;2023-03-01T08:24:09;20.20;60.10
22925;DHT22;11628;51.072;3.712;2023-03-01T08:26:36;20.40;59.30
22925;DHT22;11628;51.072;3.712;2023-03-01T08:29:02;20.80;58.20
22925;DHT22;11628;51.072;3.712;2023-03-01T08:31:33;21.40;57.00
22925;DHT22;11628;51.072;3.712;2023-03-01T08:34:02;21.90;56.50
22925;DHT22;11628;51.072;3.712;2023-03-01T08:36:34;22.30;54.80
22925;DHT22;11628;51.072;3.712;2023-03-01T08:39:00;22.50;53.60
22925;DHT22;11628;51.072;3.712;2023-03-01T08:41:26;22.30;53.00
22925;DHT22;11628;51.072;3.712;2023-03-01T08:43:54;22.60;52.20
22925;DHT22;11628;51.072;3.712;2023-03-01T08:46:25;22.70;52.00
22925;DHT22;11628;51.072;3.712;2023-03-01T08:48:51;22.90;51.90
22925;DHT22;11628;51.072;3.712;2023-03-01T08:51:18;23.30;50.70
22925;DHT22;11628;51.072;3.712;2023-03-01T08:53:44;23.70;50.20
22925;DHT22;11628;51.072;3.712;2023-03-01T08:56:10;23.90;50.10
22925;DHT22;11628;51.072;3.712;2023-03-01T08:58:36;23.90;49.30
22925;DHT22;11628;51.072;3.712;2023-03-01T09:01:14;24.20;48.70
22925;DHT22;11628;51.072;3.712;2023-03-01T09:03:40;24.30;49.20
22925;DHT22;11628;51.072;3.712;2023-03-01T09:06:07;24.60;48.10
22925;DHT22;11628;51.072;3.712;2023-03-01T09:08:46;24.80;47.90
22925;DHT22;11628;51.072;3.712;2023-03-01T09:11:15;25.10;47.70
22925;DHT22;11628;51.072;3.712;2023-03-01T09:13:42;25.50;47.30
22925;DHT22;11628;51.072;3.712;2023-03-01T09:16:08;25.90;46.10
22925;DHT22;11628;51.072;3.712;2023-03-01T09:18:35;26.50;46.10
22925;DHT22;11628;51.072;3.712;2023-03-01T09:21:13;26.40;46.00
22925;DHT22;11628;51.072;3.712;2023-03-01T09:23:41;27.50;45.10
22925;DHT22;11628;51.072;3.712;2023-03-01T09:26:08;27.70;44.10
22925;DHT22;11628;51.072;3.712;2023-03-01T09:28:35;27.60;45.00
22925;DHT22;11628;51.072;3.712;2023-03-01T09:31:02;27.90;43.10
22925;DHT22;11628;51.072;3.712;2023-03-01T09:33:29;27.40;43.10
22925;DHT22;11628;51.072;3.712;2023-03-01T09:36:02;27.30;43.30
22925;DHT22;11628;51.072;3.712;2023-03-01T09:38:29;27.00;43.00
22925;DHT22;11628;51.072;3.712;2023-03-01T09:40:55;26.80;43.10
22925;DHT22;11628;51.072;3.712;2023-03-01T09:43:43;26.40;44.00
22925;DHT22;11628;51.072;3.712;2023-03-01T09:46:12;27.20;44.40
22925;DHT22;11628;51.072;3.712;2023-03-01T09:48:56;28.60;42.10
22925;DHT22;11628;51.072;3.712;2023-03-01T09:51:29;29.30;41.80
22925;DHT22;11628;51.072;3.712;2023-03-01T09:53:56;29.80;41.30
22925;DHT22;11628;51.072;3.712;2023-03-01T09:56:37;30.00;40.70
22925;DHT22;11628;51.072;3.712;2023-03-01T10:04:46;30.20;39.80
22925;DHT22;11628;51.072;3.712;2023-03-01T10:09:46;29.40;39.90
22925;DHT22;11628;51.072;3.712;2023-03-01T10:12:16;29.40;39.60
22925;DHT22;11628;51.072;3.712;2023-03-01T10:17:48;29.50;39.70
22925;DHT22;11628;51.072;3.712;2023-03-01T10:22:41;29.60;39.50
22925;DHT22;11628;51.072;3.712;2023-03-01T10:25:13;29.80;38.80
22925;DHT22;11628;51.072;3.712;2023-03-01T10:27:54;29.80;38.40
22925;DHT22;11628;51.072;3.712;2023-03-01T10:30:41;29.50;38.80
22925;DHT22;11628;51.072;3.712;2023-03-01T10:33:31;29.60;38.60
22925;DHT22;11628;51.072;3.712;2023-03-01T10:35:57;29.40;38.50
22925;DHT22;11628;51.072;3.712;2023-03-01T10:38:23;29.70;38.20
22925;DHT22;11628;51.072;3.712;2023-03-01T10:40:55;29.40;38.60
22925;DHT22;11628;51.072;3.712;2023-03-01T10:43:26;29.50;38.70
22925;DHT22;11628;51.072;3.712;2023-03-01T10:45:52;29.90;37.90
22925;DHT22;11628;51.072;3.712;2023-03-01T10:51:06;30.80;38.00
22925;DHT22;11628;51.072;3.712;2023-03-01T10:56:07;30.90;37.70
22925;DHT22;11628;51.072;3.712;2023-03-01T10:58:36;30.80;38.20
22925;DHT22;11628;51.072;3.712;2023-03-01T11:03:36;31.20;37.40
22925;DHT22;11628;51.072;3.712;2023-03-01T11:11:19;32.20;36.80
22925;DHT22;11628;51.072;3.712;2023-03-01T11:14:06;32.30;35.70
22925;DHT22;11628;51.072;3.712;2023-03-01T11:16:38;32.00;35.80
22925;DHT22;11628;51.072;3.712;2023-03-01T11:24:44;33.50;36.00
22925;DHT22;11628;51.072;3.712;2023-03-01T11:27:18;33.60;34.80
22925;DHT22;11628;51.072;3.712;2023-03-01T11:29:51;33.30;35.10
22925;DHT22;11628;51.072;3.712;2023-03-01T11:32:19;33.30;35.10
22925;DHT22;11628;51.072;3.712;2023-03-01T11:34:58;33.40;34.60
22925;DHT22;11628;51.072;3.712;2023-03-01T11:40:35;32.30;35.50
22925;DHT22;11628;51.072;3.712;2023-03-01T11:43:47;32.20;36.10
22925;DHT22;11628;51.072;3.712;2023-03-01T11:51:20;31.80;35.10
22925;DHT22;11628;51.072;3.712;2023-03-01T11:54:02;31.60;36.30
22925;DHT22;11628;51.072;3.712;2023-03-01T11:56:41;32.20;35.90
22925;DHT22;11628;51.072;3.712;2023-03-01T12:02:40;31.90;35.50
22925;DHT22;11628;51.072;3.712;2023-03-01T12:08:23;32.00;35.90
22925;DHT22;11628;51.072;3.712;2023-03-01T12:16:30;33.10;35.40
22925;DHT22;11628;51.072;3.712;2023-03-01T12:21:58;34.00;34.30
22925;DHT22;11628;51.072;3.712;2023-03-01T12:38:49;34.70;34.60
22925;DHT22;11628;51.072;3.712;2023-03-01T12:43:53;34.50;34.30
22925;DHT22;11628;51.072;3.712;2023-03-01T12:49:13;34.70;34.10
22925;DHT22;11628;51.072;3.712;2023-03-01T12:51:40;35.10;33.50
22925;DHT22;11628;51.072;3.712;2023-03-01T12:54:25;34.40;33.90
22925;DHT22;11628;51.072;3.712;2023-03-01T12:56:52;34.60;34.30
22925;DHT22;11628;51.072;3.712;2023-03-01T13:04:30;34.70;33.90
22925;DHT22;11628;51.072;3.712;2023-03-01T13:07:30;34.60;33.70
22925;DHT22;11628;51.072;3.712;2023-03-01T13:13:02;34.00;33.80
22925;DHT22;11628;51.072;3.712;2023-03-01T13:15:33;33.20;34.80
22925;DHT22;11628;51.072;3.712;2023-03-01T13:18:01;32.60;34.50
22925;DHT22;11628;51.072;3.712;2023-03-01T13:23:11;33.30;34.10
22925;DHT22;11628;51.072;3.712;2023-03-01T13:28:36;33.00;34.30
22925;DHT22;11628;51.072;3.712;2023-03-01T13:33:58;32.00;35.10
22925;DHT22;11628;51.072;3.712;2023-03-01T13:38:57;32.50;35.20
22925;DHT22;11628;51.072;3.712;2023-03-01T13:41:50;32.60;34.50
22925;DHT22;11628;51.072;3.712;2023-03-01T13:52:34;31.10;35.60
22925;DHT22;11628;51.072;3.712;2023-03-01T13:55:06;30.80;36.40
22925;DHT22;11628;51.072;3.712;2023-03-01T13:57:39;30.50;36.30
22925;DHT22;11628;51.072;3.712;2023-03-01T14:00:30;30.50;36.40
22925;DHT22;11628;51.072;3.712;2023-03-01T14:05:31;29.20;36.80
22925;DHT22;11628;51.072;3.712;2023-03-01T14:08:00;29.00;37.10
22925;DHT22;11628;51.072;3.712;2023-03-01T14:10:36;29.20;37.40
22925;DHT22;11628;51.072;3.712;2023-03-01T14:21:27;29.00;37.40
22925;DHT22;11628;51.072;3.712;2023-03-01T14:23:54;28.70;38.00
22925;DHT22;11628;51.072;3.712;2023-03-01T14:26:21;28.40;37.70
22925;DHT22;11628;51.072;3.712;2023-03-01T14:28:48;28.30;38.00
22925;DHT22;11628;51.072;3.712;2023-03-01T14:31:34;28.20;38.60
22925;DHT22;11628;51.072;3.712;2023-03-01T14:34:00;28.50;38.60
22925;DHT22;11628;51.072;3.712;2023-03-01T14:36:28;28.60;38.10
22925;DHT22;11628;51.072;3.712;2023-03-01T14:38:54;28.20;37.60
22925;DHT22;11628;51.072;3.712;2023-03-01T14:41:26;27.90;38.20
22925;DHT22;11628;51.072;3.712;2023-03-01T14:44:02;27.70;38.20
22925;DHT22;11628;51.072;3.712;2023-03-01T14:46:35;27.30;38.80
22925;DHT22;11628;51.072;3.712;2023-03-01T14:51:36;27.70;38.70
22925;DHT22;11628;51.072;3.712;2023-03-01T14:54:01;27.90;38.40
22925;DHT22;11628;51.072;3.712;2023-03-01T14:56:43;28.20;38.00
22925;DHT22;11628;51.072;3.712;2023-03-01T14:59:10;28.30;38.90
22925;DHT22;11628;51.072;3.712;2023-03-01T15:01:36;27.90;38.40
22925;DHT22;11628;51.072;3.712;2023-03-01T15:04:02;27.50;38.80
22925;DHT22;11628;51.072;3.712;2023-03-01T15:06:28;27.30;39.00
22925;DHT22;11628;51.072;3.712;2023-03-01T15:08:57;27.10;38.90
22925;DHT22;11628;51.072;3.712;2023-03-01T15:11:31;27.10;39.00
22925;DHT22;11628;51.072;3.712;2023-03-01T15:13:58;26.50;39.30
22925;DHT22;11628;51.072;3.712;2023-03-01T15:16:32;26.30;39.70
22925;DHT22;11628;51.072;3.712;2023-03-01T15:19:05;26.10;39.90
22925;DHT22;11628;51.072;3.712;2023-03-01T15:21:38;26.10;40.30
22925;DHT22;11628;51.072;3.712;2023-03-01T15:24:17;25.80;39.70
22925;DHT22;11628;51.072;3.712;2023-03-01T15:26:57;25.50;40.10
22925;DHT22;11628;51.072;3.712;2023-03-01T15:29:29;25.20;40.70
22925;DHT22;11628;51.072;3.712;2023-03-01T15:32:22;24.80;40.60
22925;DHT22;11628;51.072;3.712;2023-03-01T15:34:50;24.40;41.10
22925;DHT22;11628;51.072;3.712;2023-03-01T15:40:00;23.30;42.70
22925;DHT22;11628;51.072;3.712;2023-03-01T15:47:41;19.90;45.60
22925;DHT22;11628;51.072;3.712;2023-03-01T15:50:29;19.00;47.20
22925;DHT22;11628;51.072;3.712;2023-03-01T15:52:56;18.00;48.90
22925;DHT22;11628;51.072;3.712;2023-03-01T15:55:24;17.30;49.50
22925;DHT22;11628;51.072;3.712;2023-03-01T15:58:05;16.70;50.70
22925;DHT22;11628;51.072;3.712;2023-03-01T16:00:35;16.10;51.50
22925;DHT22;11628;51.072;3.712;2023-03-01T16:03:00;15.70;52.20
22925;DHT22;11628;51.072;3.712;2023-03-01T16:05:29;15.20;52.60
22925;DHT22;11628;51.072;3.712;2023-03-01T16:07:56;14.90;53.60
22925;DHT22;11628;51.072;3.712;2023-03-01T16:10:22;14.60;54.80
22925;DHT22;11628;51.072;3.712;2023-03-01T16:12:49;14.40;55.40
22925;DHT22;11628;51.072;3.712;2023-03-01T16:15:22;14.20;56.20
22925;DHT22;11628;51.072;3.712;2023-03-01T16:17:48;13.80;55.80
22925;DHT22;11628;51.072;3.712;2023-03-01T16:20:14;13.70;56.40
22925;DHT22;11628;51.072;3.712;2023-03-01T16:22:42;13.50;56.70
22925;DHT22;11628;51.072;3.712;2023-03-01T16:25:10;13.30;57.30
22925;DHT22;11628;51.072;3.712;2023-03-01T16:27:36;13.20;57.30
22925;DHT22;11628;51.072;3.712;2023-03-01T16:30:02;13.20;57.60
22925;DHT22;11628;51.072;3.712;2023-03-01T16:32:27;13.00;58.00
22925;DHT22;11628;51.072;3.712;2023-03-01T16:34:53;12.90;58.20
22925;DHT22;11628;51.072;3.712;2023-03-01T16:37:19;12.80;58.50
22925;DHT22;11628;51.072;3.712;2023-03-01T16:39:44;12.70;58.80
22925;DHT22;11628;51.072;3.712;2023-03-01T16:42:10;12.60;59.10
22925;DHT22;11628;51.072;3.712;2023-03-01T16:44:36;12.50;59.10
22925;DHT22;11628;51.072;3.712;2023-03-01T16:47:01;12.30;59.20
22925;DHT22;11628;51.072;3.712;2023-03-01T16:49:27;12.20;59.60
22925;DHT22;11628;51.072;3.712;2023-03-01T16:51:56;12.10;59.60
22925;DHT22;11628;51.072;3.712;2023-03-01T16:54:21;12.00;59.90
22925;DHT22;11628;51.072;3.712;2023-03-01T16:56:47;11.90;59.70
22925;DHT22;11628;51.072;3.712;2023-03-01T16:59:13;11.80;60.00
22925;DHT22;11628;51.072;3.712;2023-03-01T17:01:39;11.70;60.30
22925;DHT22;11628;51.072;3.712;2023-03-01T17:04:08;11.60;60.70
22925;DHT22;11628;51.072;3.712;2023-03-01T17:06:35;11.60;60.70
22925;DHT22;11628;51.072;3.712;2023-03-01T17:09:01;11.50;60.70
22925;DHT22;11628;51.072;3.712;2023-03-01T17:11:27;11.40;61.00
22925;DHT22;11628;51.072;3.712;2023-03-01T17:13:52;11.20;61.00
22925;DHT22;11628;51.072;3.712;2023-03-01T17:16:19;11.10;61.20
22925;DHT22;11628;51.072;3.712;2023-03-01T17:18:46;10.90;61.60
22925;DHT22;11628;51.072;3.712;2023-03-01T17:21:12;10.80;62.20
22925;DHT22;11628;51.072;3.712;2023-03-01T17:23:40;10.70;62.80
22925;DHT22;11628;51.072;3.712;2023-03-01T17:26:07;10.70;62.80
22925;DHT22;11628;51.072;3.712;2023-03-01T17:28:34;10.60;62.70
22925;DHT22;11628;51.072;3.712;2023-03-01T17:31:02;10.50;62.90
22925;DHT22;11628;51.072;3.712;2023-03-01T17:33:28;10.50;63.40
22925;DHT22;11628;51.072;3.712;2023-03-01T17:35:56;10.40;63.30
22925;DHT22;11628;51.072;3.712;2023-03-01T17:38:22;10.30;63.70
22925;DHT22;11628;51.072;3.712;2023-03-01T17:40:48;10.20;63.80
22925;DHT22;11628;51.072;3.712;2023-03-01T17:43:16;10.10;64.20
22925;DHT22;11628;51.072;3.712;2023-03-01T17:45:42;10.10;64.50
22925;DHT22;11628;51.072;3.712;2023-03-01T17:48:12;10.00;64.60
22925;DHT22;11628;51.072;3.712;2023-03-01T17:50:38;9.90;64.80
22925;DHT22;11628;51.072;3.712;2023-03-01T17:53:05;9.90;65.20
22925;DHT22;11628;51.072;3.712;2023-03-01T17:55:36;9.80;65.60
22925;DHT22;11628;51.072;3.712;2023-03-01T17:58:03;9.60;65.70
22925;DHT22;11628;51.072;3.712;2023-03-01T18:00:29;9.60;66.10